sensor_id;sensor_type;location;lat;lon;timestamp;P1;durP1;ratioP1;P2;durP2;ratioP2
19043;SDS011;9654;52.302;8.120;2023-03-19T00:01:35;21.80;;;12.33;;
19043;SDS011;9654;52.302;8.120;2023-03-19T00:04:02;23.10;;;13.47;;
19043;SDS011;9654;52.302;8.120;2023-03-19T00:06:29;22.70;;;12.83;;
19043;SDS011;9654;52.302;8.120;2023-03-19T00:08:56;18.77;;;11.90;;
19043;SDS011;9654;52.302;8.120;2023-03-19T00:11:24;21.33;;;12.87;;
19043;SDS011;9654;52.302;8.120;2023-03-19T00:13:51;21.10;;;13.57;;
19043;SDS011;9654;52.302;8.120;2023-03-19T00:16:18;17.63;;;12.20;;
19043;SDS011;9654;52.302;8.120;2023-03-19T00:18:45;22.07;;;14.40;;
19043;SDS011;9654;52.302;8.120;2023-03-19T00:21:13;21.93;;;14.97;;
19043;SDS011;9654;52.302;8.120;2023-03-19T00:23:40;21.10;;;14.10;;
19043;SDS011;9654;52.302;8.120;2023-03-19T00:26:07;21.87;;;15.80;;
19043;SDS011;9654;52.302;8.120;2023-03-19T00:28:35;23.33;;;14.70;;
19043;SDS011;9654;52.302;8.120;2023-03-19T00:31:05;23.63;;;16.53;;
19043;SDS011;9654;52.302;8.120;2023-03-19T00:33:33;22.40;;;14.77;;
19043;SDS011;9654;52.302;8.120;2023-03-19T00:36:00;21.53;;;14.40;;
19043;SDS011;9654;52.302;8.120;2023-03-19T00:38:27;22.80;;;15.03;;
19043;SDS011;9654;52.302;8.120;2023-03-19T00:40:54;24.90;;;14.77;;
19043;SDS011;9654;52.302;8.120;2023-03-19T00:43:21;22.73;;;15.20;;
19043;SDS011;9654;52.302;8.120;2023-03-19T00:45:49;24.90;;;15.20;;
19043;SDS011;9654;52.302;8.120;2023-03-19T00:48:16;30.07;;;15.27;;
19043;SDS011;9654;52.302;8.120;2023-03-19T00:50:43;25.60;;;16.33;;
19043;SDS011;9654;52.302;8.120;2023-03-19T00:53:10;26.90;;;17.53;;
19043;SDS011;9654;52.302;8.120;2023-03-19T00:55:36;29.00;;;18.33;;
19043;SDS011;9654;52.302;8.120;2023-03-19T00:58:04;25.97;;;17.43;;
19043;SDS011;9654;52.302;8.120;2023-03-19T01:00:31;24.13;;;16.00;;
19043;SDS011;9654;52.302;8.120;2023-03-19T01:03:00;25.43;;;17.20;;
19043;SDS011;9654;52.302;8.120;2023-03-19T01:05:27;27.93;;;17.53;;
19043;SDS011;9654;52.302;8.120;2023-03-19T01:07:54;29.00;;;17.17;;
19043;SDS011;9654;52.302;8.120;2023-03-19T01:10:22;24.37;;;16.27;;
19043;SDS011;9654;52.302;8.120;2023-03-19T01:12:49;26.63;;;16.30;;
19043;SDS011;9654;52.302;8.120;2023-03-19T01:15:16;25.00;;;15.40;;
19043;SDS011;9654;52.302;8.120;2023-03-19T01:17:43;25.73;;;16.77;;
19043;SDS011;9654;52.302;8.120;2023-03-19T01:20:12;25.90;;;16.83;;
19043;SDS011;9654;52.302;8.120;2023-03-19T01:22:43;28.00;;;17.70;;
19043;SDS011;9654;52.302;8.120;2023-03-19T01:25:11;28.50;;;18.50;;
19043;SDS011;9654;52.302;8.120;2023-03-19T01:27:39;30.40;;;18.60;;
19043;SDS011;9654;52.302;8.120;2023-03-19T01:30:06;32.83;;;19.73;;
19043;SDS011;9654;52.302;8.120;2023-03-19T01:32:34;27.53;;;17.70;;
19043;SDS011;9654;52.302;8.120;2023-03-19T01:35:01;31.33;;;19.07;;
19043;SDS011;9654;52.302;8.120;2023-03-19T01:37:30;32.40;;;20.53;;
19043;SDS011;9654;52.302;8.120;2023-03-19T01:39:57;37.57;;;21.43;;
19043;SDS011;9654;52.302;8.120;2023-03-19T01:42:24;34.23;;;21.57;;
19043;SDS011;9654;52.302;8.120;2023-03-19T01:44:51;35.73;;;21.90;;
19043;SDS011;9654;52.302;8.120;2023-03-19T01:47:21;35.40;;;20.63;;
19043;SDS011;9654;52.302;8.120;2023-03-19T01:49:54;27.97;;;17.73;;
19043;SDS011;9654;52.302;8.120;2023-03-19T01:52:23;28.33;;;17.87;;
19043;SDS011;9654;52.302;8.120;2023-03-19T01:54:55;29.87;;;18.30;;
19043;SDS011;9654;52.302;8.120;2023-03-19T01:57:24;29.67;;;18.10;;
19043;SDS011;9654;52.302;8.120;2023-03-19T01:59:52;31.53;;;19.23;;
19043;SDS011;9654;52.302;8.120;2023-03-19T02:02:22;28.83;;;16.87;;
19043;SDS011;9654;52.302;8.120;2023-03-19T02:04:55;26.43;;;16.50;;
19043;SDS011;9654;52.302;8.120;2023-03-19T02:07:25;31.40;;;18.67;;
19043;SDS011;9654;52.302;8.120;2023-03-19T02:09:53;32.67;;;18.73;;
19043;SDS011;9654;52.302;8.120;2023-03-19T02:12:22;33.27;;;18.90;;
19043;SDS011;9654;52.302;8.120;2023-03-19T02:14:49;30.53;;;18.90;;
19043;SDS011;9654;52.302;8.120;2023-03-19T02:17:15;35.80;;;21.13;;
19043;SDS011;9654;52.302;8.120;2023-03-19T02:19:44;30.03;;;18.87;;
19043;SDS011;9654;52.302;8.120;2023-03-19T02:22:18;30.37;;;19.03;;
19043;SDS011;9654;52.302;8.120;2023-03-19T02:24:48;30.40;;;18.37;;
19043;SDS011;9654;52.302;8.120;2023-03-19T02:27:20;31.13;;;19.27;;
19043;SDS011;9654;52.302;8.120;2023-03-19T02:29:47;30.37;;;18.83;;
19043;SDS011;9654;52.302;8.120;2023-03-19T02:32:14;30.63;;;18.00;;
19043;SDS011;9654;52.302;8.120;2023-03-19T02:34:41;28.83;;;18.73;;
19043;SDS011;9654;52.302;8.120;2023-03-19T02:37:13;28.40;;;18.80;;
19043;SDS011;9654;52.302;8.120;2023-03-19T02:39:46;29.87;;;18.17;;
19043;SDS011;9654;52.302;8.120;2023-03-19T02:42:17;30.20;;;19.30;;
19043;SDS011;9654;52.302;8.120;2023-03-19T02:44:47;31.40;;;19.27;;
19043;SDS011;9654;52.302;8.120;2023-03-19T02:47:14;27.47;;;18.33;;
19043;SDS011;9654;52.302;8.120;2023-03-19T02:49:42;34.87;;;21.43;;
19043;SDS011;9654;52.302;8.120;2023-03-19T02:52:08;33.53;;;20.70;;
19043;SDS011;9654;52.302;8.120;2023-03-19T02:54:36;38.30;;;22.73;;
19043;SDS011;9654;52.302;8.120;2023-03-19T02:57:03;35.27;;;21.47;;
19043;SDS011;9654;52.302;8.120;2023-03-19T02:59:31;34.60;;;20.33;;
19043;SDS011;9654;52.302;8.120;2023-03-19T03:01:58;35.17;;;21.20;;
19043;SDS011;9654;52.302;8.120;2023-03-19T03:04:25;33.93;;;20.43;;
19043;SDS011;9654;52.302;8.120;2023-03-19T03:06:53;36.93;;;22.03;;
19043;SDS011;9654;52.302;8.120;2023-03-19T03:09:20;36.50;;;22.60;;
19043;SDS011;9654;52.302;8.120;2023-03-19T03:11:46;32.27;;;19.23;;
19043;SDS011;9654;52.302;8.120;2023-03-19T03:14:13;32.23;;;19.30;;
19043;SDS011;9654;52.302;8.120;2023-03-19T03:16:41;28.93;;;18.60;;
19043;SDS011;9654;52.302;8.120;2023-03-19T03:19:08;28.53;;;18.67;;
19043;SDS011;9654;52.302;8.120;2023-03-19T03:21:35;34.03;;;20.47;;
19043;SDS011;9654;52.302;8.120;2023-03-19T03:24:02;41.90;;;24.30;;
19043;SDS011;9654;52.302;8.120;2023-03-19T03:26:29;40.97;;;23.60;;
19043;SDS011;9654;52.302;8.120;2023-03-19T03:28:56;33.60;;;22.37;;
19043;SDS011;9654;52.302;8.120;2023-03-19T03:31:23;37.53;;;23.20;;
19043;SDS011;9654;52.302;8.120;2023-03-19T03:33:52;32.03;;;20.80;;
19043;SDS011;9654;52.302;8.120;2023-03-19T03:36:19;33.60;;;21.27;;
19043;SDS011;9654;52.302;8.120;2023-03-19T03:38:45;35.00;;;21.77;;
19043;SDS011;9654;52.302;8.120;2023-03-19T03:41:12;36.27;;;21.83;;
19043;SDS011;9654;52.302;8.120;2023-03-19T03:43:39;34.07;;;21.53;;
19043;SDS011;9654;52.302;8.120;2023-03-19T03:46:06;36.47;;;22.47;;
19043;SDS011;9654;52.302;8.120;2023-03-19T03:48:33;41.37;;;21.43;;
19043;SDS011;9654;52.302;8.120;2023-03-19T03:51:01;36.87;;;22.93;;
19043;SDS011;9654;52.302;8.120;2023-03-19T03:53:29;36.10;;;23.40;;
19043;SDS011;9654;52.302;8.120;2023-03-19T03:55:55;35.37;;;21.23;;
19043;SDS011;9654;52.302;8.120;2023-03-19T03:58:22;35.67;;;21.37;;
19043;SDS011;9654;52.302;8.120;2023-03-19T04:00:50;41.43;;;22.27;;
19043;SDS011;9654;52.302;8.120;2023-03-19T04:03:18;34.63;;;21.67;;
19043;SDS011;9654;52.302;8.120;2023-03-19T04:08:47;31.47;;;18.93;;
19043;SDS011;9654;52.302;8.120;2023-03-19T04:11:15;31.53;;;20.47;;
19043;SDS011;9654;52.302;8.120;2023-03-19T04:13:42;30.60;;;18.77;;
19043;SDS011;9654;52.302;8.120;2023-03-19T04:16:09;31.47;;;19.60;;
19043;SDS011;9654;52.302;8.120;2023-03-19T04:18:36;34.13;;;20.33;;
19043;SDS011;9654;52.302;8.120;2023-03-19T04:21:04;30.07;;;18.77;;
19043;SDS011;9654;52.302;8.120;2023-03-19T04:23:34;36.53;;;20.50;;
19043;SDS011;9654;52.302;8.120;2023-03-19T04:26:02;33.33;;;21.90;;
19043;SDS011;9654;52.302;8.120;2023-03-19T04:28:31;30.73;;;19.47;;
19043;SDS011;9654;52.302;8.120;2023-03-19T04:30:58;33.70;;;20.47;;
19043;SDS011;9654;52.302;8.120;2023-03-19T04:33:26;30.43;;;19.83;;
19043;SDS011;9654;52.302;8.120;2023-03-19T04:35:53;29.03;;;19.33;;
19043;SDS011;9654;52.302;8.120;2023-03-19T04:38:21;33.37;;;20.87;;
19043;SDS011;9654;52.302;8.120;2023-03-19T04:40:53;30.10;;;20.33;;
19043;SDS011;9654;52.302;8.120;2023-03-19T04:43:21;33.80;;;20.53;;
19043;SDS011;9654;52.302;8.120;2023-03-19T04:45:48;29.97;;;19.53;;
19043;SDS011;9654;52.302;8.120;2023-03-19T04:48:15;28.13;;;19.10;;
19043;SDS011;9654;52.302;8.120;2023-03-19T04:50:42;27.27;;;18.07;;
19043;SDS011;9654;52.302;8.120;2023-03-19T04:53:09;34.23;;;20.10;;
19043;SDS011;9654;52.302;8.120;2023-03-19T04:55:36;33.87;;;22.23;;
19043;SDS011;9654;52.302;8.120;2023-03-19T04:58:05;32.97;;;20.03;;
19043;SDS011;9654;52.302;8.120;2023-03-19T05:00:33;36.00;;;21.10;;
19043;SDS011;9654;52.302;8.120;2023-03-19T05:02:59;33.40;;;20.87;;
19043;SDS011;9654;52.302;8.120;2023-03-19T05:05:26;30.17;;;19.80;;
19043;SDS011;9654;52.302;8.120;2023-03-19T05:07:53;34.03;;;20.30;;
19043;SDS011;9654;52.302;8.120;2023-03-19T05:10:21;36.20;;;21.93;;
19043;SDS011;9654;52.302;8.120;2023-03-19T05:12:48;32.93;;;20.37;;
19043;SDS011;9654;52.302;8.120;2023-03-19T05:15:16;33.70;;;22.37;;
19043;SDS011;9654;52.302;8.120;2023-03-19T05:17:43;31.80;;;20.00;;
19043;SDS011;9654;52.302;8.120;2023-03-19T05:20:10;34.53;;;21.03;;
19043;SDS011;9654;52.302;8.120;2023-03-19T05:22:38;29.53;;;19.27;;
19043;SDS011;9654;52.302;8.120;2023-03-19T05:25:05;33.53;;;19.87;;
19043;SDS011;9654;52.302;8.120;2023-03-19T05:27:33;28.93;;;19.67;;
19043;SDS011;9654;52.302;8.120;2023-03-19T05:30:00;29.40;;;19.60;;
19043;SDS011;9654;52.302;8.120;2023-03-19T05:32:29;28.80;;;18.03;;
19043;SDS011;9654;52.302;8.120;2023-03-19T05:34:56;31.80;;;18.70;;
19043;SDS011;9654;52.302;8.120;2023-03-19T05:37:23;28.93;;;18.40;;
19043;SDS011;9654;52.302;8.120;2023-03-19T05:39:50;30.33;;;19.13;;
19043;SDS011;9654;52.302;8.120;2023-03-19T05:42:17;29.60;;;18.20;;
19043;SDS011;9654;52.302;8.120;2023-03-19T05:44:44;27.17;;;18.17;;
19043;SDS011;9654;52.302;8.120;2023-03-19T05:47:11;28.27;;;18.20;;
19043;SDS011;9654;52.302;8.120;2023-03-19T05:49:39;30.70;;;18.93;;
19043;SDS011;9654;52.302;8.120;2023-03-19T05:52:06;35.10;;;19.40;;
19043;SDS011;9654;52.302;8.120;2023-03-19T05:54:33;28.67;;;18.53;;
19043;SDS011;9654;52.302;8.120;2023-03-19T05:57:00;28.17;;;17.03;;
19043;SDS011;9654;52.302;8.120;2023-03-19T05:59:27;32.00;;;17.83;;
19043;SDS011;9654;52.302;8.120;2023-03-19T06:01:54;27.27;;;16.90;;
19043;SDS011;9654;52.302;8.120;2023-03-19T06:04:20;26.60;;;17.07;;
19043;SDS011;9654;52.302;8.120;2023-03-19T06:06:49;27.43;;;17.50;;
19043;SDS011;9654;52.302;8.120;2023-03-19T06:09:15;34.30;;;19.80;;
19043;SDS011;9654;52.302;8.120;2023-03-19T06:11:42;27.60;;;17.70;;
19043;SDS011;9654;52.302;8.120;2023-03-19T06:14:09;28.57;;;18.20;;
19043;SDS011;9654;52.302;8.120;2023-03-19T06:16:36;28.73;;;18.33;;
19043;SDS011;9654;52.302;8.120;2023-03-19T06:19:03;27.90;;;18.77;;
19043;SDS011;9654;52.302;8.120;2023-03-19T06:21:29;28.87;;;18.33;;
19043;SDS011;9654;52.302;8.120;2023-03-19T06:23:58;29.10;;;19.73;;
19043;SDS011;9654;52.302;8.120;2023-03-19T06:26:24;27.00;;;17.77;;
19043;SDS011;9654;52.302;8.120;2023-03-19T06:28:51;26.53;;;17.67;;
19043;SDS011;9654;52.302;8.120;2023-03-19T06:31:18;26.23;;;16.90;;
19043;SDS011;9654;52.302;8.120;2023-03-19T06:33:45;26.33;;;18.23;;
19043;SDS011;9654;52.302;8.120;2023-03-19T06:36:13;28.77;;;17.93;;
19043;SDS011;9654;52.302;8.120;2023-03-19T06:38:40;28.53;;;17.33;;
19043;SDS011;9654;52.302;8.120;2023-03-19T06:41:08;24.47;;;16.53;;
19043;SDS011;9654;52.302;8.120;2023-03-19T06:43:34;22.23;;;16.50;;
19043;SDS011;9654;52.302;8.120;2023-03-19T06:46:02;27.50;;;17.07;;
19043;SDS011;9654;52.302;8.120;2023-03-19T06:48:28;23.87;;;15.70;;
19043;SDS011;9654;52.302;8.120;2023-03-19T06:50:56;22.07;;;15.10;;
19043;SDS011;9654;52.302;8.120;2023-03-19T06:53:22;20.50;;;14.47;;
19043;SDS011;9654;52.302;8.120;2023-03-19T06:55:50;22.90;;;15.00;;
19043;SDS011;9654;52.302;8.120;2023-03-19T06:58:18;22.40;;;14.50;;
19043;SDS011;9654;52.302;8.120;2023-03-19T07:00:45;19.17;;;13.87;;
19043;SDS011;9654;52.302;8.120;2023-03-19T07:03:12;20.30;;;13.20;;
19043;SDS011;9654;52.302;8.120;2023-03-19T07:05:39;21.13;;;11.97;;
19043;SDS011;9654;52.302;8.120;2023-03-19T07:08:06;19.57;;;12.60;;
19043;SDS011;9654;52.302;8.120;2023-03-19T07:10:35;15.30;;;11.23;;
19043;SDS011;9654;52.302;8.120;2023-03-19T07:13:03;17.87;;;9.20;;
19043;SDS011;9654;52.302;8.120;2023-03-19T07:15:31;18.27;;;9.00;;
19043;SDS011;9654;52.302;8.120;2023-03-19T07:17:58;13.17;;;8.27;;
19043;SDS011;9654;52.302;8.120;2023-03-19T07:20:25;12.53;;;8.40;;
19043;SDS011;9654;52.302;8.120;2023-03-19T07:22:52;13.30;;;8.40;;
19043;SDS011;9654;52.302;8.120;2023-03-19T07:25:19;11.53;;;8.13;;
19043;SDS011;9654;52.302;8.120;2023-03-19T07:27:46;13.07;;;8.30;;
19043;SDS011;9654;52.302;8.120;2023-03-19T07:30:13;13.80;;;8.27;;
19043;SDS011;9654;52.302;8.120;2023-03-19T07:32:42;8.00;;;6.53;;
19043;SDS011;9654;52.302;8.120;2023-03-19T07:35:08;12.37;;;7.13;;
19043;SDS011;9654;52.302;8.120;2023-03-19T07:37:35;10.17;;;6.53;;
19043;SDS011;9654;52.302;8.120;2023-03-19T07:40:02;9.07;;;6.27;;
19043;SDS011;9654;52.302;8.120;2023-03-19T07:42:31;8.30;;;5.83;;
19043;SDS011;9654;52.302;8.120;2023-03-19T07:45:00;9.50;;;5.63;;
19043;SDS011;9654;52.302;8.120;2023-03-19T07:47:27;9.70;;;5.53;;
19043;SDS011;9654;52.302;8.120;2023-03-19T07:49:56;10.23;;;5.43;;
19043;SDS011;9654;52.302;8.120;2023-03-19T07:52:23;7.50;;;5.03;;
19043;SDS011;9654;52.302;8.120;2023-03-19T07:54:50;10.37;;;5.13;;
19043;SDS011;9654;52.302;8.120;2023-03-19T07:57:20;6.53;;;4.47;;
19043;SDS011;9654;52.302;8.120;2023-03-19T07:59:47;4.70;;;4.23;;
19043;SDS011;9654;52.302;8.120;2023-03-19T08:02:15;10.10;;;5.03;;
19043;SDS011;9654;52.302;8.120;2023-03-19T08:04:43;6.40;;;4.40;;
19043;SDS011;9654;52.302;8.120;2023-03-19T08:07:12;10.47;;;4.43;;
19043;SDS011;9654;52.302;8.120;2023-03-19T08:09:41;7.60;;;4.50;;
19043;SDS011;9654;52.302;8.120;2023-03-19T08:12:08;7.70;;;4.77;;
19043;SDS011;9654;52.302;8.120;2023-03-19T08:14:35;8.27;;;4.57;;
19043;SDS011;9654;52.302;8.120;2023-03-19T08:17:04;15.07;;;5.90;;
19043;SDS011;9654;52.302;8.120;2023-03-19T08:19:32;11.83;;;5.37;;
19043;SDS011;9654;52.302;8.120;2023-03-19T08:21:59;9.60;;;5.20;;
19043;SDS011;9654;52.302;8.120;2023-03-19T08:24:30;7.37;;;4.97;;
19043;SDS011;9654;52.302;8.120;2023-03-19T08:26:57;7.93;;;4.40;;
19043;SDS011;9654;52.302;8.120;2023-03-19T08:29:23;8.37;;;5.70;;
19043;SDS011;9654;52.302;8.120;2023-03-19T08:31:51;8.57;;;5.23;;
19043;SDS011;9654;52.302;8.120;2023-03-19T08:34:18;8.53;;;5.30;;
19043;SDS011;9654;52.302;8.120;2023-03-19T08:36:46;8.43;;;5.03;;
19043;SDS011;9654;52.302;8.120;2023-03-19T08:39:12;7.43;;;4.93;;
19043;SDS011;9654;52.302;8.120;2023-03-19T08:41:41;8.47;;;4.83;;
19043;SDS011;9654;52.302;8.120;2023-03-19T08:44:07;7.80;;;5.27;;
19043;SDS011;9654;52.302;8.120;2023-03-19T08:46:34;9.33;;;6.10;;
19043;SDS011;9654;52.302;8.120;2023-03-19T08:49:01;12.67;;;6.37;;
19043;SDS011;9654;52.302;8.120;2023-03-19T08:51:28;12.87;;;6.60;;
19043;SDS011;9654;52.302;8.120;2023-03-19T08:53:55;9.57;;;6.23;;
19043;SDS011;9654;52.302;8.120;2023-03-19T08:56:22;10.23;;;6.40;;
19043;SDS011;9654;52.302;8.120;2023-03-19T08:58:50;8.23;;;6.03;;
19043;SDS011;9654;52.302;8.120;2023-03-19T09:01:17;10.30;;;6.80;;
19043;SDS011;9654;52.302;8.120;2023-03-19T09:03:43;13.00;;;7.43;;
19043;SDS011;9654;52.302;8.120;2023-03-19T09:06:11;13.30;;;8.27;;
19043;SDS011;9654;52.302;8.120;2023-03-19T09:08:39;16.43;;;8.27;;
19043;SDS011;9654;52.302;8.120;2023-03-19T09:11:06;11.80;;;8.90;;
19043;SDS011;9654;52.302;8.120;2023-03-19T09:13:34;18.47;;;10.70;;
19043;SDS011;9654;52.302;8.120;2023-03-19T09:16:03;15.10;;;10.17;;
19043;SDS011;9654;52.302;8.120;2023-03-19T09:18:30;13.07;;;8.60;;
19043;SDS011;9654;52.302;8.120;2023-03-19T09:20:57;19.20;;;9.73;;
19043;SDS011;9654;52.302;8.120;2023-03-19T09:23:24;15.67;;;9.10;;
19043;SDS011;9654;52.302;8.120;2023-03-19T09:25:51;14.83;;;8.77;;
19043;SDS011;9654;52.302;8.120;2023-03-19T09:28:18;13.23;;;8.80;;
19043;SDS011;9654;52.302;8.120;2023-03-19T09:30:45;11.87;;;8.17;;
19043;SDS011;9654;52.302;8.120;2023-03-19T09:33:14;11.40;;;8.23;;
19043;SDS011;9654;52.302;8.120;2023-03-19T09:35:42;12.27;;;8.53;;
19043;SDS011;9654;52.302;8.120;2023-03-19T09:38:14;10.93;;;8.83;;
19043;SDS011;9654;52.302;8.120;2023-03-19T09:40:41;17.40;;;9.03;;
19043;SDS011;9654;52.302;8.120;2023-03-19T09:43:19;13.40;;;10.33;;
19043;SDS011;9654;52.302;8.120;2023-03-19T09:45:57;14.23;;;11.07;;
19043;SDS011;9654;52.302;8.120;2023-03-19T09:48:30;13.63;;;10.87;;
19043;SDS011;9654;52.302;8.120;2023-03-19T09:51:04;12.83;;;10.53;;
19043;SDS011;9654;52.302;8.120;2023-03-19T09:53:39;13.90;;;11.50;;
19043;SDS011;9654;52.302;8.120;2023-03-19T09:56:13;14.70;;;9.93;;
19043;SDS011;9654;52.302;8.120;2023-03-19T09:58:43;14.80;;;9.80;;
19043;SDS011;9654;52.302;8.120;2023-03-19T10:03:58;15.10;;;10.20;;
19043;SDS011;9654;52.302;8.120;2023-03-19T10:06:50;20.03;;;11.00;;
19043;SDS011;9654;52.302;8.120;2023-03-19T10:09:27;14.63;;;10.03;;
19043;SDS011;9654;52.302;8.120;2023-03-19T10:12:12;16.27;;;10.73;;
19043;SDS011;9654;52.302;8.120;2023-03-19T10:17:41;17.67;;;10.43;;
19043;SDS011;9654;52.302;8.120;2023-03-19T10:20:21;13.40;;;10.77;;
19043;SDS011;9654;52.302;8.120;2023-03-19T10:22:56;11.97;;;9.93;;
19043;SDS011;9654;52.302;8.120;2023-03-19T10:25:28;12.53;;;10.20;;
19043;SDS011;9654;52.302;8.120;2023-03-19T10:27:58;13.03;;;10.07;;
19043;SDS011;9654;52.302;8.120;2023-03-19T10:30:30;11.80;;;9.30;;
19043;SDS011;9654;52.302;8.120;2023-03-19T10:33:02;12.90;;;9.33;;
19043;SDS011;9654;52.302;8.120;2023-03-19T10:35:42;10.83;;;9.20;;
19043;SDS011;9654;52.302;8.120;2023-03-19T10:38:17;11.77;;;9.40;;
19043;SDS011;9654;52.302;8.120;2023-03-19T10:40:47;10.97;;;9.43;;
19043;SDS011;9654;52.302;8.120;2023-03-19T10:43:26;10.50;;;8.60;;
19043;SDS011;9654;52.302;8.120;2023-03-19T10:45:56;9.87;;;8.57;;
19043;SDS011;9654;52.302;8.120;2023-03-19T10:48:24;9.23;;;8.30;;
19043;SDS011;9654;52.302;8.120;2023-03-19T10:50:53;11.03;;;8.80;;
19043;SDS011;9654;52.302;8.120;2023-03-19T10:53:28;9.87;;;8.80;;
19043;SDS011;9654;52.302;8.120;2023-03-19T10:56:02;11.07;;;9.47;;
19043;SDS011;9654;52.302;8.120;2023-03-19T10:58:30;11.43;;;10.13;;
19043;SDS011;9654;52.302;8.120;2023-03-19T11:01:02;12.90;;;10.43;;
19043;SDS011;9654;52.302;8.120;2023-03-19T11:03:34;11.43;;;9.77;;
19043;SDS011;9654;52.302;8.120;2023-03-19T11:06:04;11.43;;;9.67;;
19043;SDS011;9654;52.302;8.120;2023-03-19T11:08:40;10.80;;;9.70;;
19043;SDS011;9654;52.302;8.120;2023-03-19T11:11:21;12.57;;;10.57;;
19043;SDS011;9654;52.302;8.120;2023-03-19T11:13:50;12.20;;;9.87;;
19043;SDS011;9654;52.302;8.120;2023-03-19T11:16:17;12.33;;;10.20;;
19043;SDS011;9654;52.302;8.120;2023-03-19T11:18:45;12.53;;;10.07;;
19043;SDS011;9654;52.302;8.120;2023-03-19T11:21:22;13.20;;;10.10;;
19043;SDS011;9654;52.302;8.120;2023-03-19T11:23:51;11.23;;;9.73;;
19043;SDS011;9654;52.302;8.120;2023-03-19T11:26:23;12.67;;;10.87;;
19043;SDS011;9654;52.302;8.120;2023-03-19T11:28:52;12.10;;;10.43;;
19043;SDS011;9654;52.302;8.120;2023-03-19T11:31:23;13.30;;;10.53;;
19043;SDS011;9654;52.302;8.120;2023-03-19T11:34:10;14.23;;;11.27;;
19043;SDS011;9654;52.302;8.120;2023-03-19T11:36:49;13.37;;;10.70;;
19043;SDS011;9654;52.302;8.120;2023-03-19T11:39:26;12.83;;;10.37;;
19043;SDS011;9654;52.302;8.120;2023-03-19T11:42:01;14.03;;;10.53;;
19043;SDS011;9654;52.302;8.120;2023-03-19T11:44:48;15.53;;;11.20;;
19043;SDS011;9654;52.302;8.120;2023-03-19T11:47:25;12.90;;;10.40;;
19043;SDS011;9654;52.302;8.120;2023-03-19T11:50:04;11.37;;;9.80;;
19043;SDS011;9654;52.302;8.120;2023-03-19T11:52:48;10.63;;;8.93;;
19043;SDS011;9654;52.302;8.120;2023-03-19T11:55:27;11.10;;;8.40;;
19043;SDS011;9654;52.302;8.120;2023-03-19T11:58:04;8.83;;;7.93;;
19043;SDS011;9654;52.302;8.120;2023-03-19T12:00:45;11.57;;;8.80;;
19043;SDS011;9654;52.302;8.120;2023-03-19T12:06:17;10.90;;;8.77;;
19043;SDS011;9654;52.302;8.120;2023-03-19T12:08:53;8.67;;;7.77;;
19043;SDS011;9654;52.302;8.120;2023-03-19T12:11:27;13.27;;;9.10;;
19043;SDS011;9654;52.302;8.120;2023-03-19T12:14:08;10.10;;;9.00;;
19043;SDS011;9654;52.302;8.120;2023-03-19T12:16:53;12.47;;;9.00;;
19043;SDS011;9654;52.302;8.120;2023-03-19T12:19:38;10.67;;;8.83;;
19043;SDS011;9654;52.302;8.120;2023-03-19T12:22:17;14.03;;;10.30;;
19043;SDS011;9654;52.302;8.120;2023-03-19T12:25:08;11.80;;;9.03;;
19043;SDS011;9654;52.302;8.120;2023-03-19T12:27:52;10.50;;;8.80;;
19043;SDS011;9654;52.302;8.120;2023-03-19T12:30:29;12.93;;;9.27;;
19043;SDS011;9654;52.302;8.120;2023-03-19T12:33:07;10.93;;;9.13;;
19043;SDS011;9654;52.302;8.120;2023-03-19T12:35:39;13.87;;;9.50;;
19043;SDS011;9654;52.302;8.120;2023-03-19T12:38:09;10.80;;;9.30;;
19043;SDS011;9654;52.302;8.120;2023-03-19T12:40:44;10.57;;;8.77;;
19043;SDS011;9654;52.302;8.120;2023-03-19T12:43:17;9.30;;;8.30;;
19043;SDS011;9654;52.302;8.120;2023-03-19T12:45:48;9.03;;;8.13;;
19043;SDS011;9654;52.302;8.120;2023-03-19T12:48:20;12.60;;;9.10;;
19043;SDS011;9654;52.302;8.120;2023-03-19T12:50:51;12.13;;;8.60;;
19043;SDS011;9654;52.302;8.120;2023-03-19T12:53:25;10.00;;;9.00;;
19043;SDS011;9654;52.302;8.120;2023-03-19T12:56:03;10.97;;;8.50;;
19043;SDS011;9654;52.302;8.120;2023-03-19T12:58:40;12.33;;;8.80;;
19043;SDS011;9654;52.302;8.120;2023-03-19T13:01:15;10.83;;;8.60;;
19043;SDS011;9654;52.302;8.120;2023-03-19T13:03:49;11.07;;;7.90;;
19043;SDS011;9654;52.302;8.120;2023-03-19T13:06:22;13.37;;;8.93;;
19043;SDS011;9654;52.302;8.120;2023-03-19T13:08:54;10.63;;;8.73;;
19043;SDS011;9654;52.302;8.120;2023-03-19T13:11:30;14.07;;;10.03;;
19043;SDS011;9654;52.302;8.120;2023-03-19T13:14:12;12.43;;;10.50;;
19043;SDS011;9654;52.302;8.120;2023-03-19T13:16:45;14.57;;;10.23;;
19043;SDS011;9654;52.302;8.120;2023-03-19T13:19:20;13.07;;;10.57;;
19043;SDS011;9654;52.302;8.120;2023-03-19T13:21:54;19.00;;;13.87;;
19043;SDS011;9654;52.302;8.120;2023-03-19T13:24:24;14.40;;;9.80;;
19043;SDS011;9654;52.302;8.120;2023-03-19T13:26:54;11.53;;;10.13;;
19043;SDS011;9654;52.302;8.120;2023-03-19T13:29:25;14.90;;;9.27;;
19043;SDS011;9654;52.302;8.120;2023-03-19T13:31:58;10.23;;;8.90;;
19043;SDS011;9654;52.302;8.120;2023-03-19T13:34:27;12.90;;;9.20;;
19043;SDS011;9654;52.302;8.120;2023-03-19T13:36:59;12.80;;;9.70;;
19043;SDS011;9654;52.302;8.120;2023-03-19T13:39:30;10.93;;;8.83;;
19043;SDS011;9654;52.302;8.120;2023-03-19T13:42:10;10.83;;;8.77;;
19043;SDS011;9654;52.302;8.120;2023-03-19T13:45:02;10.97;;;8.83;;
19043;SDS011;9654;52.302;8.120;2023-03-19T13:47:51;12.70;;;9.30;;
19043;SDS011;9654;52.302;8.120;2023-03-19T13:50:28;13.43;;;9.83;;
19043;SDS011;9654;52.302;8.120;2023-03-19T13:55:59;10.60;;;8.97;;
19043;SDS011;9654;52.302;8.120;2023-03-19T13:58:28;10.40;;;9.27;;
19043;SDS011;9654;52.302;8.120;2023-03-19T14:04:16;11.43;;;8.73;;
19043;SDS011;9654;52.302;8.120;2023-03-19T14:06:45;10.20;;;8.00;;
19043;SDS011;9654;52.302;8.120;2023-03-19T14:12:08;10.27;;;8.43;;
19043;SDS011;9654;52.302;8.120;2023-03-19T14:14:47;9.57;;;8.27;;
19043;SDS011;9654;52.302;8.120;2023-03-19T14:17:18;9.73;;;8.30;;
19043;SDS011;9654;52.302;8.120;2023-03-19T14:19:49;9.53;;;8.10;;
19043;SDS011;9654;52.302;8.120;2023-03-19T14:22:18;12.40;;;9.00;;
19043;SDS011;9654;52.302;8.120;2023-03-19T14:24:54;9.00;;;7.90;;
19043;SDS011;9654;52.302;8.120;2023-03-19T14:27:30;8.57;;;7.50;;
19043;SDS011;9654;52.302;8.120;2023-03-19T14:29:58;10.00;;;6.90;;
19043;SDS011;9654;52.302;8.120;2023-03-19T14:32:33;6.37;;;5.73;;
19043;SDS011;9654;52.302;8.120;2023-03-19T14:35:06;6.03;;;5.43;;
19043;SDS011;9654;52.302;8.120;2023-03-19T14:37:41;6.57;;;4.90;;
19043;SDS011;9654;52.302;8.120;2023-03-19T14:40:12;6.10;;;5.50;;
19043;SDS011;9654;52.302;8.120;2023-03-19T14:42:46;5.50;;;4.87;;
19043;SDS011;9654;52.302;8.120;2023-03-19T14:45:34;6.90;;;5.30;;
19043;SDS011;9654;52.302;8.120;2023-03-19T14:48:22;5.90;;;5.30;;
19043;SDS011;9654;52.302;8.120;2023-03-19T14:51:10;6.60;;;5.40;;
19043;SDS011;9654;52.302;8.120;2023-03-19T14:53:47;6.23;;;5.03;;
19043;SDS011;9654;52.302;8.120;2023-03-19T14:56:19;8.10;;;5.67;;
19043;SDS011;9654;52.302;8.120;2023-03-19T14:58:49;7.07;;;4.70;;
19043;SDS011;9654;52.302;8.120;2023-03-19T15:01:18;6.77;;;4.70;;
19043;SDS011;9654;52.302;8.120;2023-03-19T15:03:50;6.87;;;5.37;;
19043;SDS011;9654;52.302;8.120;2023-03-19T15:06:20;7.63;;;5.20;;
19043;SDS011;9654;52.302;8.120;2023-03-19T15:08:48;4.37;;;3.93;;
19043;SDS011;9654;52.302;8.120;2023-03-19T15:11:30;5.57;;;4.30;;
19043;SDS011;9654;52.302;8.120;2023-03-19T15:14:10;5.83;;;4.93;;
19043;SDS011;9654;52.302;8.120;2023-03-19T15:16:49;4.77;;;4.30;;
19043;SDS011;9654;52.302;8.120;2023-03-19T15:19:23;5.20;;;4.70;;
19043;SDS011;9654;52.302;8.120;2023-03-19T15:22:03;4.93;;;4.20;;